createdAt,value
2022-12-20T00:00:07.379Z,13.77
2022-12-20T00:03:00.458Z,14.50
2022-12-20T00:05:37.061Z,17.50
2022-12-20T00:08:10.849Z,18.90
2022-12-20T00:10:45.750Z,17.67
2022-12-20T00:13:18.777Z,19.98
2022-12-20T00:15:51.387Z,18.00
2022-12-20T00:18:24.308Z,13.38
2022-12-20T00:21:00.608Z,19.40
2022-12-20T00:23:34.019Z,20.88
2022-12-20T00:26:11.476Z,13.68
2022-12-20T00:28:45.589Z,18.85
2022-12-20T00:31:19.286Z,14.35
2022-12-20T00:33:53.219Z,14.85
2022-12-20T00:36:27.535Z,17.52
2022-12-20T00:39:01.021Z,15.20
2022-12-20T00:41:34.531Z,21.50
2022-12-20T00:44:07.394Z,19.23
2022-12-20T00:46:39.918Z,18.55
2022-12-20T00:49:16.834Z,12.45
2022-12-20T00:51:49.380Z,12.43
2022-12-20T00:54:22.344Z,18.73
2022-12-20T00:56:54.991Z,12.25
2022-12-20T00:59:28.021Z,17.52
2022-12-20T01:02:01.424Z,16.52
2022-12-20T01:04:34.853Z,17.38
2022-12-20T01:07:07.442Z,12.38
2022-12-20T01:09:40.949Z,20.38
2022-12-20T01:12:13.467Z,9.65
2022-12-20T01:14:46.420Z,18.67
2022-12-20T01:17:18.937Z,16.65
2022-12-20T01:19:51.980Z,12.30
2022-12-20T01:22:24.585Z,19.70
2022-12-20T01:24:57.574Z,19.38
2022-12-20T01:27:30.100Z,14.95
2022-12-20T01:30:03.046Z,17.73
2022-12-20T01:32:35.565Z,18.48
2022-12-20T01:35:08.652Z,12.45
2022-12-20T01:37:41.212Z,15.38
2022-12-20T01:40:14.437Z,20.70
2022-12-20T01:42:48.010Z,14.68
2022-12-20T01:45:25.851Z,17.58
2022-12-20T01:47:59.343Z,21.70
2022-12-20T01:50:32.471Z,12.20
2022-12-20T01:53:05.753Z,15.68
2022-12-20T01:55:39.058Z,15.85
2022-12-20T01:58:12.936Z,16.52
2022-12-20T02:00:46.076Z,20.15
2022-12-20T02:03:18.957Z,18.70
2022-12-20T02:05:51.911Z,14.35
2022-12-20T02:08:24.699Z,19.52
2022-12-20T02:10:57.600Z,16.02
2022-12-20T02:13:37.568Z,18.90
2022-12-20T02:16:13.344Z,20.10
2022-12-20T02:19:08.880Z,18.67
2022-12-20T02:22:05.294Z,17.65
2022-12-20T02:24:43.874Z,32.10
2022-12-20T02:27:22.955Z,18.50
2022-12-20T02:30:01.966Z,18.13
2022-12-20T02:32:49.716Z,18.63
2022-12-20T02:35:25.052Z,14.43
2022-12-20T02:37:59.482Z,16.60
2022-12-20T02:40:35.519Z,18.77
2022-12-20T02:43:30.071Z,16.45
2022-12-20T02:46:04.148Z,23.08
2022-12-20T02:48:37.900Z,12.65
2022-12-20T02:51:11.313Z,12.25
2022-12-20T02:53:44.408Z,16.08
2022-12-20T02:56:22.382Z,10.02
2022-12-20T02:59:01.659Z,16.27
2022-12-20T03:01:36.645Z,14.35
2022-12-20T03:04:10.778Z,9.40
2022-12-20T03:07:17.113Z,16.50
2022-12-20T03:09:49.983Z,14.57
2022-12-20T03:12:22.561Z,20.92
2022-12-20T03:14:56.479Z,18.80
2022-12-20T03:17:29.093Z,25.50
2022-12-20T03:20:02.298Z,16.48
2022-12-20T03:22:35.271Z,15.93
2022-12-20T03:25:09.043Z,16.30
2022-12-20T03:27:41.904Z,21.70
2022-12-20T03:30:15.859Z,17.23
2022-12-20T03:32:48.948Z,14.32
2022-12-20T03:35:22.029Z,20.77
2022-12-20T03:37:56.010Z,12.60
2022-12-20T03:40:29.109Z,13.77
2022-12-20T03:43:02.295Z,21.35
2022-12-20T03:45:35.530Z,21.13
2022-12-20T03:48:09.408Z,16.70
2022-12-20T03:50:42.414Z,17.45
2022-12-20T03:53:15.865Z,17.48
2022-12-20T03:55:49.532Z,17.23
2022-12-20T03:58:22.328Z,17.58
2022-12-20T04:00:56.949Z,9.45
2022-12-20T04:03:48.770Z,23.95
2022-12-20T04:06:22.524Z,11.13
2022-12-20T04:08:56.905Z,20.90
2022-12-20T04:11:35.316Z,16.88
2022-12-20T04:14:14.469Z,14.07
2022-12-20T04:16:47.415Z,13.77
2022-12-20T04:19:20.569Z,16.50
2022-12-20T04:22:02.689Z,22.00
2022-12-20T04:24:49.399Z,15.55
2022-12-20T04:27:29.595Z,18.52
2022-12-20T04:30:03.035Z,11.55
2022-12-20T04:32:36.097Z,18.70
2022-12-20T04:35:08.949Z,11.75
2022-12-20T04:37:46.797Z,18.50
2022-12-20T04:40:20.536Z,20.02
2022-12-20T04:43:00.508Z,18.00
2022-12-20T04:45:33.869Z,13.70
2022-12-20T04:48:36.842Z,17.33
2022-12-20T04:51:01.246Z,15.75
2022-12-20T04:53:49.803Z,14.27
2022-12-20T04:56:48.648Z,12.25
2022-12-20T04:59:26.611Z,14.27
2022-12-20T05:02:01.037Z,24.75
2022-12-20T05:04:50.847Z,20.58
2022-12-20T05:07:23.363Z,25.63
2022-12-20T05:09:59.316Z,14.73
2022-12-20T05:12:31.990Z,18.42
2022-12-20T05:15:07.914Z,9.50
2022-12-20T05:17:40.677Z,13.77
2022-12-20T05:20:13.925Z,15.02
2022-12-20T05:23:07.612Z,29.45
2022-12-20T05:26:04.964Z,14.93
2022-12-20T05:28:37.643Z,23.52
2022-12-20T05:31:11.196Z,20.30
2022-12-20T05:33:43.773Z,13.63
2022-12-20T05:36:17.181Z,25.00
2022-12-20T05:38:50.708Z,18.00
2022-12-20T05:41:25.618Z,11.70
2022-12-20T05:43:58.904Z,16.60
2022-12-20T05:46:33.047Z,24.35
2022-12-20T05:49:09.395Z,21.73
2022-12-20T05:51:43.249Z,17.20
2022-12-20T05:54:27.046Z,22.60
2022-12-20T05:57:20.171Z,27.20
2022-12-20T05:59:52.779Z,20.60
2022-12-20T06:02:30.083Z,16.38
2022-12-20T06:05:08.939Z,21.20
2022-12-20T06:07:42.027Z,18.30
2022-12-20T06:10:14.693Z,17.08
2022-12-20T06:12:58.275Z,19.95
2022-12-20T06:15:31.859Z,16.88
2022-12-20T06:18:08.028Z,21.67
2022-12-20T06:20:40.739Z,30.70
2022-12-20T06:23:16.298Z,20.13
2022-12-20T06:25:56.608Z,26.52
2022-12-20T06:28:30.754Z,21.38
2022-12-20T06:31:03.806Z,22.17
2022-12-20T06:36:20.677Z,20.25
2022-12-20T06:38:54.101Z,30.58
2022-12-20T06:41:27.030Z,26.75
2022-12-20T06:44:00.340Z,19.58
2022-12-20T06:46:33.246Z,16.40
2022-12-20T06:49:06.566Z,17.40
2022-12-20T06:51:39.206Z,24.58
2022-12-20T06:54:12.132Z,22.63
2022-12-20T06:56:45.267Z,34.70
2022-12-20T06:59:19.009Z,30.60
2022-12-20T07:01:51.678Z,38.33
2022-12-20T07:04:24.710Z,36.70
2022-12-20T07:07:00.180Z,23.48
2022-12-20T07:09:33.245Z,40.30
2022-12-20T07:12:05.806Z,56.78
2022-12-20T07:14:38.758Z,38.83
2022-12-20T07:17:11.608Z,29.63
2022-12-20T07:19:50.556Z,18.58
2022-12-20T07:22:23.612Z,28.67
2022-12-20T07:24:57.577Z,27.23
2022-12-20T07:27:30.132Z,30.00
2022-12-20T07:30:03.168Z,25.65
2022-12-20T07:32:35.630Z,29.63
2022-12-20T07:35:10.895Z,18.45
2022-12-20T07:37:44.147Z,40.75
2022-12-20T07:40:17.868Z,26.42
2022-12-20T07:42:50.561Z,30.67
2022-12-20T07:45:24.500Z,24.13
2022-12-20T07:48:03.322Z,20.17
2022-12-20T07:50:40.957Z,21.90
2022-12-20T07:53:14.602Z,27.52
2022-12-20T07:55:48.839Z,25.10
2022-12-20T07:58:22.058Z,22.63
2022-12-20T08:00:56.014Z,25.27
2022-12-20T08:03:32.194Z,21.20
2022-12-20T08:06:06.181Z,25.75
2022-12-20T08:08:39.178Z,15.00
2022-12-20T08:11:12.360Z,25.20
2022-12-20T08:13:46.833Z,20.15
2022-12-20T08:16:21.775Z,17.27
2022-12-20T08:18:54.525Z,23.98
2022-12-20T08:21:27.444Z,20.33
2022-12-20T08:24:00.049Z,27.15
2022-12-20T08:26:37.350Z,10.30
2022-12-20T08:29:09.968Z,19.85
2022-12-20T08:31:47.808Z,15.55
2022-12-20T08:34:22.936Z,20.50
2022-12-20T08:36:55.834Z,19.67
2022-12-20T08:39:28.499Z,12.35
2022-12-20T08:42:01.348Z,22.77
2022-12-20T08:44:33.813Z,25.17
2022-12-20T08:47:06.668Z,25.92
2022-12-20T08:49:45.661Z,17.92
2022-12-20T08:52:20.470Z,22.75
2022-12-20T08:54:53.104Z,21.52
2022-12-20T08:57:26.035Z,15.77
2022-12-20T08:59:58.803Z,24.98
2022-12-20T09:02:32.318Z,19.48
2022-12-20T09:05:05.492Z,28.73
2022-12-20T09:07:38.744Z,21.65
2022-12-20T09:10:11.552Z,20.02
2022-12-20T09:12:44.467Z,18.30
2022-12-20T09:15:17.581Z,17.55
2022-12-20T09:17:50.523Z,24.52
2022-12-20T09:20:23.141Z,26.15
2022-12-20T09:22:56.044Z,20.13
2022-12-20T09:25:29.265Z,17.42
2022-12-20T09:28:02.347Z,15.23
2022-12-20T09:30:35.037Z,12.05
2022-12-20T09:33:10.528Z,20.73
2022-12-20T09:35:46.840Z,19.20
2022-12-20T09:38:19.761Z,22.55
2022-12-20T09:40:54.652Z,25.85
2022-12-20T09:43:27.705Z,17.38
2022-12-20T09:46:01.085Z,18.90
2022-12-20T09:48:40.522Z,19.02
2022-12-20T09:51:15.950Z,18.50
2022-12-20T09:54:07.984Z,14.35
2022-12-20T09:56:44.231Z,14.02
2022-12-20T09:59:20.752Z,13.05
2022-12-20T10:01:53.450Z,22.80
2022-12-20T10:04:29.080Z,22.45
2022-12-20T10:07:04.864Z,24.25
2022-12-20T10:09:45.956Z,21.50
2022-12-20T10:12:24.689Z,15.70
2022-12-20T10:15:17.589Z,17.88
2022-12-20T10:18:11.096Z,46.90
2022-12-20T10:20:44.773Z,32.10
2022-12-20T10:23:18.033Z,25.38
2022-12-20T10:25:52.422Z,24.33
2022-12-20T10:28:32.066Z,28.15
2022-12-20T10:31:07.027Z,25.65
2022-12-20T10:33:40.054Z,20.23
2022-12-20T10:36:32.798Z,22.13
2022-12-20T10:39:06.704Z,13.95
2022-12-20T10:41:39.915Z,22.63
2022-12-20T10:44:18.092Z,25.00
2022-12-20T10:46:55.848Z,27.85
2022-12-20T10:49:31.799Z,17.42
2022-12-20T10:52:07.665Z,14.27
2022-12-20T10:54:41.145Z,22.40
2022-12-20T10:57:27.040Z,25.00
2022-12-20T11:00:01.375Z,36.40
2022-12-20T11:02:40.893Z,17.70
2022-12-20T11:05:14.917Z,33.33
2022-12-20T11:08:34.658Z,24.85
2022-12-20T11:11:23.392Z,20.80
2022-12-20T11:14:13.427Z,22.17
2022-12-20T11:16:46.522Z,25.77
2022-12-20T11:19:26.251Z,24.95
2022-12-20T11:22:17.355Z,43.00
2022-12-20T11:24:50.294Z,34.78
2022-12-20T11:27:44.963Z,21.17
2022-12-20T11:30:20.398Z,19.48
2022-12-20T11:33:03.477Z,19.58
2022-12-20T11:35:39.564Z,12.38
2022-12-20T11:38:12.123Z,17.35
2022-12-20T11:40:56.180Z,15.02
2022-12-20T11:44:08.117Z,18.70
2022-12-20T11:46:44.853Z,17.27
2022-12-20T11:49:17.512Z,22.20
2022-12-20T11:51:56.932Z,25.35
2022-12-20T11:54:33.303Z,17.13
2022-12-20T11:57:12.590Z,20.27
2022-12-20T11:59:54.014Z,19.35
2022-12-20T12:02:45.507Z,18.52
2022-12-20T12:05:24.670Z,21.65
2022-12-20T12:08:01.425Z,24.48
2022-12-20T12:10:39.416Z,23.70
2022-12-20T12:13:12.987Z,20.13
2022-12-20T12:15:55.071Z,24.52
2022-12-20T12:18:29.469Z,32.97
2022-12-20T12:21:09.603Z,20.40
2022-12-20T12:23:51.382Z,19.52
2022-12-20T12:26:35.087Z,37.20
2022-12-20T12:29:16.052Z,31.77
2022-12-20T12:31:51.620Z,23.83
2022-12-20T12:34:30.673Z,26.23
2022-12-20T12:37:21.737Z,24.60
2022-12-20T12:40:03.592Z,24.73
2022-12-20T12:42:36.031Z,19.75
2022-12-20T12:45:21.435Z,19.67
2022-12-20T12:48:11.968Z,19.38
2022-12-20T12:50:47.075Z,27.77
2022-12-20T12:53:31.567Z,22.50
2022-12-20T12:56:42.499Z,18.90
2022-12-20T12:59:24.572Z,21.38
2022-12-20T13:02:06.431Z,13.25
2022-12-20T13:07:33.810Z,24.35
2022-12-20T13:10:09.304Z,23.93
2022-12-20T13:12:42.268Z,23.50
2022-12-20T13:15:21.317Z,23.02
2022-12-20T13:18:01.698Z,17.35
2022-12-20T13:20:35.840Z,23.83
2022-12-20T13:23:08.862Z,24.27
2022-12-20T13:25:41.689Z,19.52
2022-12-20T13:28:23.876Z,18.75
2022-12-20T13:31:02.856Z,28.92
2022-12-20T13:33:46.272Z,22.40
2022-12-20T13:36:33.097Z,33.15
2022-12-20T13:39:31.271Z,28.50
2022-12-20T13:42:14.607Z,20.10
2022-12-20T13:44:48.233Z,21.52
2022-12-20T13:47:30.313Z,22.40
2022-12-20T13:50:18.805Z,22.70
2022-12-20T13:52:51.584Z,21.77
2022-12-20T13:55:43.398Z,17.75
2022-12-20T13:58:25.856Z,25.13
2022-12-20T14:01:05.974Z,19.63
2022-12-20T14:03:42.613Z,11.07
2022-12-20T14:06:20.234Z,22.25
2022-12-20T14:08:55.646Z,12.80
2022-12-20T14:11:28.744Z,21.67
2022-12-20T14:14:02.692Z,22.42
2022-12-20T14:16:36.801Z,19.25
2022-12-20T14:19:14.807Z,22.80
2022-12-20T14:21:47.788Z,18.83
2022-12-20T14:24:21.904Z,20.38
2022-12-20T14:26:55.152Z,16.58
2022-12-20T14:29:29.362Z,17.67
2022-12-20T14:32:02.269Z,26.20
2022-12-20T14:34:41.933Z,24.67
2022-12-20T14:37:35.715Z,18.05
2022-12-20T14:40:11.161Z,19.85
2022-12-20T14:42:45.790Z,15.27
2022-12-20T14:45:23.733Z,19.30
2022-12-20T14:47:58.633Z,14.85
2022-12-20T14:50:35.608Z,20.30
2022-12-20T14:53:20.401Z,15.25
2022-12-20T14:55:53.065Z,21.27
2022-12-20T14:58:33.516Z,21.88
2022-12-20T15:01:15.417Z,23.10
2022-12-20T15:03:52.910Z,34.05
2022-12-20T15:06:46.179Z,26.98
2022-12-20T15:09:19.844Z,20.75
2022-12-20T15:11:52.811Z,20.10
2022-12-20T15:14:25.861Z,19.77
2022-12-20T15:16:58.701Z,21.10
2022-12-20T15:19:36.314Z,25.85
2022-12-20T15:22:14.570Z,22.83
2022-12-20T15:24:47.637Z,19.52
2022-12-20T15:27:20.525Z,20.30
2022-12-20T15:29:54.425Z,23.73
2022-12-20T15:32:30.102Z,23.98
2022-12-20T15:35:04.943Z,27.65
2022-12-20T15:37:37.468Z,25.58
2022-12-20T15:40:14.350Z,22.10
2022-12-20T15:42:49.696Z,18.45
2022-12-20T15:45:23.249Z,21.13
2022-12-20T15:47:55.761Z,29.10
2022-12-20T15:50:28.709Z,21.95
2022-12-20T15:53:02.320Z,19.63
2022-12-20T15:55:39.659Z,20.52
2022-12-20T15:58:12.977Z,16.63
2022-12-20T16:00:46.137Z,21.45
2022-12-20T16:03:21.225Z,16.55
2022-12-20T16:05:57.260Z,31.60
2022-12-20T16:08:31.127Z,24.45
2022-12-20T16:11:05.615Z,27.20
2022-12-20T16:13:38.199Z,21.42
2022-12-20T16:16:16.123Z,26.80
2022-12-20T16:18:49.283Z,36.67
2022-12-20T16:21:26.301Z,26.05
2022-12-20T16:23:59.196Z,21.85
2022-12-20T16:26:32.214Z,19.67
2022-12-20T16:29:05.004Z,21.60
2022-12-20T16:31:39.260Z,22.98
2022-12-20T16:34:16.627Z,21.52
2022-12-20T16:36:49.606Z,22.15
2022-12-20T16:39:23.126Z,27.10
2022-12-20T16:41:56.128Z,31.83
2022-12-20T16:44:28.766Z,23.27
2022-12-20T16:47:01.799Z,27.05
2022-12-20T16:49:34.335Z,21.10
2022-12-20T16:52:15.886Z,26.15
2022-12-20T16:54:48.676Z,21.45
2022-12-20T16:57:21.947Z,19.90
2022-12-20T16:59:54.730Z,25.88
2022-12-20T17:02:28.964Z,25.85
2022-12-20T17:05:02.377Z,29.83
2022-12-20T17:07:41.325Z,23.92
2022-12-20T17:10:14.351Z,24.85
2022-12-20T17:12:48.000Z,33.67
2022-12-20T17:15:24.615Z,26.08
2022-12-20T17:17:58.561Z,39.40
2022-12-20T17:20:36.613Z,50.10
2022-12-20T17:23:13.446Z,53.35
2022-12-20T17:25:51.993Z,25.92
2022-12-20T17:28:27.830Z,71.80
2022-12-20T17:31:07.542Z,43.47
2022-12-20T17:33:40.988Z,36.67
2022-12-20T17:36:13.537Z,44.28
2022-12-20T17:38:49.808Z,42.72
2022-12-20T17:41:23.836Z,47.58
2022-12-20T17:43:57.583Z,67.78
2022-12-20T17:46:30.676Z,42.97
2022-12-20T17:49:03.577Z,27.45
2022-12-20T17:51:36.102Z,51.60
2022-12-20T17:54:14.241Z,32.15
2022-12-20T17:56:47.123Z,38.08
2022-12-20T17:59:20.305Z,46.88
2022-12-20T18:01:53.004Z,39.90
2022-12-20T18:04:26.999Z,39.75
2022-12-20T18:06:59.865Z,44.22
2022-12-20T18:09:32.821Z,43.35
2022-12-20T18:12:05.380Z,47.75
2022-12-20T18:14:38.308Z,47.85
2022-12-20T18:17:11.296Z,55.42
2022-12-20T18:19:44.390Z,51.83
2022-12-20T18:22:17.292Z,33.88
2022-12-20T18:24:50.199Z,46.88
2022-12-20T18:27:30.199Z,36.65
2022-12-20T18:30:04.223Z,56.00
2022-12-20T18:32:36.813Z,43.55
2022-12-20T18:35:10.173Z,50.10
2022-12-20T18:37:42.720Z,79.35
2022-12-20T18:40:15.656Z,68.35
2022-12-20T18:42:48.252Z,60.53
2022-12-20T18:45:21.129Z,43.35
2022-12-20T18:47:53.757Z,41.05
2022-12-20T18:50:26.666Z,45.70
2022-12-20T18:53:01.499Z,32.75
2022-12-20T18:55:37.099Z,69.95
2022-12-20T18:58:10.170Z,57.80
2022-12-20T19:00:43.244Z,48.75
2022-12-20T19:03:16.046Z,60.88
2022-12-20T19:05:52.076Z,37.70
2022-12-20T19:08:25.273Z,26.80
2022-12-20T19:10:59.463Z,37.33
2022-12-20T19:13:32.063Z,34.70
2022-12-20T19:16:13.400Z,32.88
2022-12-20T19:18:46.346Z,52.65
2022-12-20T19:21:22.775Z,44.78
2022-12-20T19:23:56.245Z,32.22
2022-12-20T19:26:30.123Z,49.03
2022-12-20T19:29:03.513Z,58.85
2022-12-20T19:31:37.982Z,37.60
2022-12-20T19:34:11.885Z,34.58
2022-12-20T19:36:46.144Z,48.30
2022-12-20T19:39:20.862Z,51.35
2022-12-20T19:42:24.501Z,41.80
2022-12-20T19:44:46.495Z,31.77
2022-12-20T19:47:19.421Z,31.67
2022-12-20T19:49:52.436Z,43.17
2022-12-20T19:52:31.316Z,31.60
2022-12-20T19:55:03.885Z,36.88
2022-12-20T19:57:36.840Z,38.15
2022-12-20T20:00:09.845Z,31.73
2022-12-20T20:02:45.807Z,34.25
2022-12-20T20:05:18.857Z,40.63
2022-12-20T20:07:52.076Z,32.45
2022-12-20T20:10:24.627Z,36.28
2022-12-20T20:12:57.623Z,29.70
2022-12-20T20:15:30.215Z,31.30
2022-12-20T20:18:03.318Z,49.92
2022-12-20T20:20:39.960Z,43.10
2022-12-20T20:23:12.835Z,42.40
2022-12-20T20:25:49.691Z,54.45
2022-12-20T20:28:26.576Z,36.67
2022-12-20T20:31:04.766Z,56.00
2022-12-20T20:33:38.497Z,39.33
2022-12-20T20:36:13.593Z,39.83
2022-12-20T20:38:46.884Z,38.25
2022-12-20T20:41:19.541Z,52.10
2022-12-20T20:43:52.438Z,45.05
2022-12-20T20:46:25.510Z,34.10
2022-12-20T20:48:58.829Z,35.25
2022-12-20T20:51:31.318Z,36.92
2022-12-20T20:54:04.334Z,37.88
2022-12-20T20:56:36.824Z,46.17
2022-12-20T20:59:15.291Z,44.97
2022-12-20T21:01:50.263Z,34.28
2022-12-20T21:04:23.258Z,35.22
2022-12-20T21:06:55.799Z,33.38
2022-12-20T21:09:29.061Z,28.85
2022-12-20T21:12:01.726Z,28.98
2022-12-20T21:15:12.319Z,52.42
2022-12-20T21:17:27.318Z,39.08
2022-12-20T21:20:00.425Z,40.10
2022-12-20T21:22:33.589Z,42.75
2022-12-20T21:25:06.792Z,47.83
2022-12-20T21:27:39.325Z,69.72
2022-12-20T21:30:12.858Z,56.22
2022-12-20T21:32:46.108Z,42.28
2022-12-20T21:35:21.599Z,32.90
2022-12-20T21:37:54.154Z,35.80
2022-12-20T21:40:27.584Z,39.70
2022-12-20T21:43:00.615Z,51.40
2022-12-20T21:45:34.958Z,29.40
2022-12-20T21:48:07.515Z,27.33
2022-12-20T21:50:40.605Z,27.50
2022-12-20T21:53:19.217Z,28.33
2022-12-20T21:55:58.926Z,22.90
2022-12-20T21:58:31.943Z,25.42
2022-12-20T22:01:05.595Z,22.58
2022-12-20T22:03:38.460Z,18.60
2022-12-20T22:06:11.504Z,25.13
2022-12-20T22:08:44.000Z,35.28
2022-12-20T22:11:18.561Z,32.80
2022-12-20T22:13:55.852Z,21.83
2022-12-20T22:16:30.565Z,27.25
2022-12-20T22:19:03.928Z,27.23
2022-12-20T22:21:38.280Z,32.67
2022-12-20T22:24:11.101Z,33.65
2022-12-20T22:26:44.016Z,43.95
2022-12-20T22:29:16.625Z,33.40
2022-12-20T22:31:50.095Z,28.30
2022-12-20T22:34:22.600Z,30.13
2022-12-20T22:36:55.614Z,28.95
2022-12-20T22:39:28.236Z,25.85
2022-12-20T22:42:01.190Z,36.10
2022-12-20T22:44:33.737Z,18.40
2022-12-20T22:49:52.963Z,23.63
2022-12-20T22:52:25.828Z,32.13
2022-12-20T22:54:58.548Z,24.15
2022-12-20T22:57:33.142Z,32.42
2022-12-20T23:00:06.788Z,35.67
2022-12-20T23:02:41.328Z,29.13
2022-12-20T23:05:14.052Z,34.05
2022-12-20T23:07:46.912Z,38.38
2022-12-20T23:10:37.937Z,34.05
2022-12-20T23:13:32.028Z,34.13
2022-12-20T23:16:04.598Z,25.10
2022-12-20T23:18:37.454Z,29.20
2022-12-20T23:21:28.694Z,42.00
2022-12-20T23:24:01.481Z,27.98
2022-12-20T23:26:35.261Z,17.20
2022-12-20T23:29:08.668Z,34.05
2022-12-20T23:31:41.309Z,30.05
2022-12-20T23:34:14.285Z,29.45
2022-12-20T23:36:47.272Z,28.77
2022-12-20T23:39:20.109Z,20.20
2022-12-20T23:41:52.592Z,33.15
2022-12-20T23:44:25.419Z,31.42
2022-12-20T23:46:57.949Z,27.73
2022-12-20T23:49:30.953Z,35.63
2022-12-20T23:52:04.181Z,30.10
2022-12-20T23:54:37.052Z,34.47
2022-12-20T23:57:11.555Z,25.55
2022-12-20T23:59:44.497Z,23.88
